logo
Search for airport 
image banner adimage banner adimage banner ad
image banner ad

MZAM - H.E Alfredo Martinez (Tower Hill) Airstrip

Located in , Belize

ICAO - , IATA -

Data provided by Airmate  

General information

Coordinates: N18°2'49" W88°35'2"
Elevation is 69 feet MSL.
 
View others Airports in Orange Walk District

Operational data

Special qualification required
Current time UTC:
Current local time:
TAF: TAF MMCM 220502Z 2206/2306 12005KT P6SM SCT020 BECMG 2214/2216 10010KT FM221800 12015KT P6SM SCT200 BECMG 2223/2301 10008KT SCT020
View NOTAMs / SUP AIP / TFR affecting this airport [VIEW]
Communications frequencies: [VIEW]

Runways:

RWY identifierQFULength (ft)Width (ft)SurfaceLDA (ft)
10230036UNK
28230036UNK

Airport contact information

Address: Belize

Satellite view of MZAM